sensor_id;sensor_type;location;lat;lon;timestamp;pressure;altitude;pressure_sealevel;temperature;humidity
33075;BME280;19433;51.292;6.868;2023-05-08T00:00:30;100811.81;;;13.68;100.00
33075;BME280;19433;51.292;6.868;2023-05-08T00:02:55;100797.94;;;13.61;100.00
33075;BME280;19433;51.292;6.868;2023-05-08T00:05:21;100804.53;;;13.60;100.00
33075;BME280;19433;51.292;6.868;2023-05-08T00:07:46;100797.53;;;13.58;100.00
33075;BME280;19433;51.292;6.868;2023-05-08T00:10:12;100797.06;;;13.61;100.00
33075;BME280;19433;51.292;6.868;2023-05-08T00:12:37;100801.34;;;13.63;100.00
33075;BME280;19433;51.292;6.868;2023-05-08T00:15:03;100801.34;;;13.63;100.00
33075;BME280;19433;51.292;6.868;2023-05-08T00:17:29;100805.41;;;13.61;100.00
33075;BME280;19433;51.292;6.868;2023-05-08T00:19:55;100806.28;;;13.55;100.00
33075;BME280;19433;51.292;6.868;2023-05-08T00:22:21;100801.38;;;13.57;100.00
33075;BME280;19433;51.292;6.868;2023-05-08T00:24:46;100796.03;;;13.55;100.00
33075;BME280;19433;51.292;6.868;2023-05-08T00:27:11;100799.88;;;13.48;100.00
33075;BME280;19433;51.292;6.868;2023-05-08T00:29:37;100804.78;;;13.46;100.00
33075;BME280;19433;51.292;6.868;2023-05-08T00:32:05;100799.88;;;13.48;100.00
33075;BME280;19433;51.292;6.868;2023-05-08T00:34:30;100802.84;;;13.46;100.00
33075;BME280;19433;51.292;6.868;2023-05-08T00:36:56;100800.09;;;13.53;100.00
33075;BME280;19433;51.292;6.868;2023-05-08T00:39:21;100801.81;;;13.54;100.00
33075;BME280;19433;51.292;6.868;2023-05-08T00:41:47;100797.78;;;13.43;100.00
33075;BME280;19433;51.292;6.868;2023-05-08T00:44:12;100799.25;;;13.39;100.00
33075;BME280;19433;51.292;6.868;2023-05-08T00:46:38;100806.50;;;13.33;100.00
33075;BME280;19433;51.292;6.868;2023-05-08T00:49:04;100803.75;;;13.27;100.00
33075;BME280;19433;51.292;6.868;2023-05-08T00:51:30;100805.69;;;13.26;100.00
33075;BME280;19433;51.292;6.868;2023-05-08T00:53:56;100814.84;;;13.27;100.00
33075;BME280;19433;51.292;6.868;2023-05-08T00:56:22;100801.63;;;13.29;100.00
33075;BME280;19433;51.292;6.868;2023-05-08T00:58:49;100808.44;;;13.26;100.00
33075;BME280;19433;51.292;6.868;2023-05-08T01:01:15;100804.19;;;13.24;100.00
33075;BME280;19433;51.292;6.868;2023-05-08T01:03:42;100800.53;;;13.23;100.00
33075;BME280;19433;51.292;6.868;2023-05-08T01:06:07;100815.28;;;13.24;100.00
33075;BME280;19433;51.292;6.868;2023-05-08T01:08:33;100798.19;;;13.14;100.00
33075;BME280;19433;51.292;6.868;2023-05-08T01:11:16;100808.00;;;13.16;100.00
33075;BME280;19433;51.292;6.868;2023-05-08T01:16:37;100806.50;;;13.20;100.00
33075;BME280;19433;51.292;6.868;2023-05-08T01:27:59;100816.94;;;13.12;100.00
33075;BME280;19433;51.292;6.868;2023-05-08T01:33:19;100815.91;;;13.19;100.00
33075;BME280;19433;51.292;6.868;2023-05-08T01:35:51;100816.56;;;13.21;100.00
33075;BME280;19433;51.292;6.868;2023-05-08T01:38:21;100811.22;;;13.20;100.00
33075;BME280;19433;51.292;6.868;2023-05-08T01:40:53;100811.00;;;13.28;100.00
33075;BME280;19433;51.292;6.868;2023-05-08T01:45:50;100821.44;;;13.59;100.00
33075;BME280;19433;51.292;6.868;2023-05-08T01:48:24;100821.03;;;13.42;100.00
33075;BME280;19433;51.292;6.868;2023-05-08T01:50:57;100819.31;;;13.34;100.00
33075;BME280;19433;51.292;6.868;2023-05-08T01:53:27;100811.19;;;13.33;100.00
33075;BME280;19433;51.292;6.868;2023-05-08T01:55:57;100825.09;;;13.26;100.00
33075;BME280;19433;51.292;6.868;2023-05-08T01:58:24;100826.59;;;13.22;100.00
33075;BME280;19433;51.292;6.868;2023-05-08T02:00:51;100834.88;;;13.16;100.00
33075;BME280;19433;51.292;6.868;2023-05-08T02:03:18;100838.72;;;13.15;100.00
33075;BME280;19433;51.292;6.868;2023-05-08T02:05:47;100834.44;;;13.12;100.00
33075;BME280;19433;51.292;6.868;2023-05-08T02:08:14;100830.16;;;13.03;100.00
33075;BME280;19433;51.292;6.868;2023-05-08T02:10:41;100831.03;;;12.97;100.00
33075;BME280;19433;51.292;6.868;2023-05-08T02:13:08;100826.28;;;12.84;100.00
33075;BME280;19433;51.292;6.868;2023-05-08T02:15:35;100833.75;;;12.84;100.00
33075;BME280;19433;51.292;6.868;2023-05-08T02:18:04;100834.84;;;12.89;100.00
33075;BME280;19433;51.292;6.868;2023-05-08T02:20:31;100841.00;;;12.85;100.00
33075;BME280;19433;51.292;6.868;2023-05-08T02:22:57;100836.53;;;12.90;100.00
33075;BME280;19433;51.292;6.868;2023-05-08T02:25:24;100843.16;;;12.89;100.00
33075;BME280;19433;51.292;6.868;2023-05-08T02:27:52;100847.88;;;12.95;100.00
33075;BME280;19433;51.292;6.868;2023-05-08T02:30:21;100853.19;;;12.90;100.00
33075;BME280;19433;51.292;6.868;2023-05-08T02:32:49;100857.03;;;12.96;100.00
33075;BME280;19433;51.292;6.868;2023-05-08T02:35:17;100855.56;;;13.07;100.00
33075;BME280;19433;51.292;6.868;2023-05-08T02:37:45;100855.38;;;13.15;100.00
33075;BME280;19433;51.292;6.868;2023-05-08T02:40:12;100851.75;;;13.21;100.00
33075;BME280;19433;51.292;6.868;2023-05-08T02:42:38;100860.97;;;13.28;100.00
33075;BME280;19433;51.292;6.868;2023-05-08T02:45:04;100855.00;;;13.44;100.00
33075;BME280;19433;51.292;6.868;2023-05-08T02:47:41;100847.72;;;13.43;100.00
33075;BME280;19433;51.292;6.868;2023-05-08T02:50:26;100856.03;;;13.50;100.00
33075;BME280;19433;51.292;6.868;2023-05-08T02:53:01;100859.25;;;13.40;100.00
33075;BME280;19433;51.292;6.868;2023-05-08T03:00:52;100840.88;;;13.26;100.00
33075;BME280;19433;51.292;6.868;2023-05-08T03:03:39;100843.22;;;13.35;100.00
33075;BME280;19433;51.292;6.868;2023-05-08T03:06:11;100837.03;;;13.40;100.00
33075;BME280;19433;51.292;6.868;2023-05-08T03:08:38;100843.25;;;13.42;100.00
33075;BME280;19433;51.292;6.868;2023-05-08T03:11:08;100842.59;;;13.27;100.00
33075;BME280;19433;51.292;6.868;2023-05-08T03:13:37;100841.09;;;13.18;100.00
33075;BME280;19433;51.292;6.868;2023-05-08T03:16:09;100841.53;;;13.28;100.00
33075;BME280;19433;51.292;6.868;2023-05-08T03:18:51;100846.00;;;13.35;100.00
33075;BME280;19433;51.292;6.868;2023-05-08T03:21:18;100842.38;;;13.22;100.00
33075;BME280;19433;51.292;6.868;2023-05-08T03:23:46;100842.34;;;13.15;100.00
33075;BME280;19433;51.292;6.868;2023-05-08T03:26:16;100842.56;;;13.14;100.00
33075;BME280;19433;51.292;6.868;2023-05-08T03:28:44;100837.44;;;13.30;100.00
33075;BME280;19433;51.292;6.868;2023-05-08T03:31:11;100841.09;;;13.24;100.00
33075;BME280;19433;51.292;6.868;2023-05-08T03:33:39;100836.84;;;13.28;100.00
33075;BME280;19433;51.292;6.868;2023-05-08T03:36:07;100843.25;;;13.42;100.00
33075;BME280;19433;51.292;6.868;2023-05-08T03:38:33;100836.59;;;13.30;100.00
33075;BME280;19433;51.292;6.868;2023-05-08T03:40:59;100838.53;;;13.36;100.00
33075;BME280;19433;51.292;6.868;2023-05-08T03:43:24;100834.03;;;13.35;100.00
33075;BME280;19433;51.292;6.868;2023-05-08T03:45:51;100834.91;;;13.35;100.00
33075;BME280;19433;51.292;6.868;2023-05-08T03:48:17;100828.91;;;13.19;100.00
33075;BME280;19433;51.292;6.868;2023-05-08T03:50:44;100833.41;;;13.20;100.00
33075;BME280;19433;51.292;6.868;2023-05-08T03:53:09;100827.81;;;13.07;100.00
33075;BME280;19433;51.292;6.868;2023-05-08T03:55:35;100836.13;;;13.00;100.00
33075;BME280;19433;51.292;6.868;2023-05-08T04:03:23;100834.88;;;13.16;100.00
33075;BME280;19433;51.292;6.868;2023-05-08T04:05:57;100833.84;;;13.23;100.00
33075;BME280;19433;51.292;6.868;2023-05-08T04:08:27;100842.81;;;13.25;100.00
33075;BME280;19433;51.292;6.868;2023-05-08T04:11:23;100848.34;;;13.19;100.00
33075;BME280;19433;51.292;6.868;2023-05-08T04:13:53;100836.38;;;13.12;100.00
33075;BME280;19433;51.292;6.868;2023-05-08T04:16:23;100847.50;;;13.31;100.00
33075;BME280;19433;51.292;6.868;2023-05-08T04:19:02;100847.94;;;13.35;100.00
33075;BME280;19433;51.292;6.868;2023-05-08T04:21:32;100849.00;;;13.41;100.00
33075;BME280;19433;51.292;6.868;2023-05-08T04:23:58;100856.06;;;13.43;100.00
33075;BME280;19433;51.292;6.868;2023-05-08T04:26:24;100851.97;;;13.32;100.00
33075;BME280;19433;51.292;6.868;2023-05-08T04:28:49;100855.19;;;13.43;100.00
33075;BME280;19433;51.292;6.868;2023-05-08T04:31:15;100853.69;;;13.40;100.00
33075;BME280;19433;51.292;6.868;2023-05-08T04:33:42;100849.63;;;13.29;100.00
33075;BME280;19433;51.292;6.868;2023-05-08T04:36:11;100853.69;;;13.40;100.00
33075;BME280;19433;51.292;6.868;2023-05-08T04:38:37;100865.63;;;13.47;100.00
33075;BME280;19433;51.292;6.868;2023-05-08T04:41:02;100862.66;;;13.68;100.00
33075;BME280;19433;51.292;6.868;2023-05-08T04:43:27;100855.63;;;13.59;100.00
33075;BME280;19433;51.292;6.868;2023-05-08T04:45:53;100852.84;;;13.59;100.00
33075;BME280;19433;51.292;6.868;2023-05-08T04:48:18;100863.50;;;13.56;100.00
33075;BME280;19433;51.292;6.868;2023-05-08T04:50:43;100868.44;;;13.54;100.00
33075;BME280;19433;51.292;6.868;2023-05-08T04:53:09;100862.00;;;13.66;100.00
33075;BME280;19433;51.292;6.868;2023-05-08T04:55:34;100864.56;;;13.68;100.00
33075;BME280;19433;51.292;6.868;2023-05-08T04:57:59;100857.28;;;13.60;100.00
33075;BME280;19433;51.292;6.868;2023-05-08T05:00:24;100851.97;;;13.65;100.00
33075;BME280;19433;51.292;6.868;2023-05-08T05:02:50;100864.34;;;13.83;100.00
33075;BME280;19433;51.292;6.868;2023-05-08T05:05:15;100859.03;;;13.75;100.00
33075;BME280;19433;51.292;6.868;2023-05-08T05:07:40;100868.19;;;13.82;100.00
33075;BME280;19433;51.292;6.868;2023-05-08T05:10:06;100871.16;;;13.87;100.00
33075;BME280;19433;51.292;6.868;2023-05-08T05:12:31;100872.66;;;13.89;100.00
33075;BME280;19433;51.292;6.868;2023-05-08T05:14:57;100872.00;;;13.94;100.00
33075;BME280;19433;51.292;6.868;2023-05-08T05:17:22;100874.81;;;13.87;100.00
33075;BME280;19433;51.292;6.868;2023-05-08T05:19:47;100875.19;;;13.91;100.00
33075;BME280;19433;51.292;6.868;2023-05-08T05:22:12;100887.38;;;13.96;100.00
33075;BME280;19433;51.292;6.868;2023-05-08T05:24:38;100885.66;;;13.95;100.00
33075;BME280;19433;51.292;6.868;2023-05-08T05:27:04;100891.63;;;14.05;100.00
33075;BME280;19433;51.292;6.868;2023-05-08T05:29:30;100890.56;;;14.13;100.00
33075;BME280;19433;51.292;6.868;2023-05-08T05:31:55;100888.13;;;14.36;100.00
33075;BME280;19433;51.292;6.868;2023-05-08T05:34:20;100888.50;;;14.53;100.00
33075;BME280;19433;51.292;6.868;2023-05-08T05:36:45;100890.06;;;14.49;100.00
33075;BME280;19433;51.292;6.868;2023-05-08T05:39:11;100889.38;;;14.54;100.00
33075;BME280;19433;51.292;6.868;2023-05-08T05:41:36;100892.09;;;14.67;100.00
33075;BME280;19433;51.292;6.868;2023-05-08T05:44:01;100890.16;;;14.67;100.00
33075;BME280;19433;51.292;6.868;2023-05-08T05:46:27;100891.69;;;14.63;100.00
33075;BME280;19433;51.292;6.868;2023-05-08T05:48:59;100902.41;;;14.60;100.00
33075;BME280;19433;51.292;6.868;2023-05-08T05:51:25;100898.75;;;14.66;100.00
33075;BME280;19433;51.292;6.868;2023-05-08T05:53:51;100896.78;;;14.73;100.00
33075;BME280;19433;51.292;6.868;2023-05-08T05:56:17;100904.03;;;14.81;100.00
33075;BME280;19433;51.292;6.868;2023-05-08T05:58:42;100902.47;;;14.85;100.00
33075;BME280;19433;51.292;6.868;2023-05-08T06:01:09;100907.81;;;14.93;100.00
33075;BME280;19433;51.292;6.868;2023-05-08T06:03:35;100897.69;;;14.98;100.00
33075;BME280;19433;51.292;6.868;2023-05-08T06:06:01;100904.97;;;14.99;100.00
33075;BME280;19433;51.292;6.868;2023-05-08T06:08:27;100914.09;;;15.13;100.00
33075;BME280;19433;51.292;6.868;2023-05-08T06:10:52;100900.44;;;15.11;100.00
33075;BME280;19433;51.292;6.868;2023-05-08T06:13:18;100894.22;;;15.09;100.00
33075;BME280;19433;51.292;6.868;2023-05-08T06:15:44;100906.75;;;15.25;100.00
33075;BME280;19433;51.292;6.868;2023-05-08T06:18:09;100912.53;;;15.24;100.00
33075;BME280;19433;51.292;6.868;2023-05-08T06:20:39;100916.56;;;15.28;100.00
33075;BME280;19433;51.292;6.868;2023-05-08T06:23:04;100916.44;;;15.47;100.00
33075;BME280;19433;51.292;6.868;2023-05-08T06:25:30;100910.97;;;15.66;100.00
33075;BME280;19433;51.292;6.868;2023-05-08T06:27:55;100914.59;;;15.66;100.00
33075;BME280;19433;51.292;6.868;2023-05-08T06:30:21;100916.09;;;15.69;100.00
33075;BME280;19433;51.292;6.868;2023-05-08T06:32:47;100918.44;;;15.72;100.00
33075;BME280;19433;51.292;6.868;2023-05-08T06:35:12;100921.13;;;16.03;100.00
33075;BME280;19433;51.292;6.868;2023-05-08T06:37:42;100904.28;;;15.92;100.00
33075;BME280;19433;51.292;6.868;2023-05-08T06:40:09;100914.09;;;16.01;100.00
33075;BME280;19433;51.292;6.868;2023-05-08T06:42:34;100912.31;;;16.25;100.00
33075;BME280;19433;51.292;6.868;2023-05-08T06:45:00;100907.69;;;16.37;100.00
33075;BME280;19433;51.292;6.868;2023-05-08T06:47:25;100905.53;;;16.75;100.00
33075;BME280;19433;51.292;6.868;2023-05-08T06:49:51;100906.94;;;16.96;100.00
33075;BME280;19433;51.292;6.868;2023-05-08T06:52:18;100930.09;;;18.45;100.00
33075;BME280;19433;51.292;6.868;2023-05-08T06:54:43;100932.09;;;18.84;89.43
33075;BME280;19433;51.292;6.868;2023-05-08T06:57:08;100938.22;;;19.10;94.45
33075;BME280;19433;51.292;6.868;2023-05-08T06:59:34;100929.94;;;18.75;92.83
33075;BME280;19433;51.292;6.868;2023-05-08T07:01:59;100929.84;;;18.46;94.82
33075;BME280;19433;51.292;6.868;2023-05-08T07:04:24;100937.38;;;18.57;93.37
33075;BME280;19433;51.292;6.868;2023-05-08T07:06:49;100939.94;;;18.36;95.11
33075;BME280;19433;51.292;6.868;2023-05-08T07:09:15;100950.78;;;18.09;96.57
33075;BME280;19433;51.292;6.868;2023-05-08T07:11:40;100934.13;;;18.02;96.24
33075;BME280;19433;51.292;6.868;2023-05-08T07:14:06;100939.72;;;18.25;96.83
33075;BME280;19433;51.292;6.868;2023-05-08T07:16:31;100941.97;;;18.87;94.71
33075;BME280;19433;51.292;6.868;2023-05-08T07:18:57;100945.56;;;19.27;91.95
33075;BME280;19433;51.292;6.868;2023-05-08T07:21:22;100949.19;;;19.68;92.14
33075;BME280;19433;51.292;6.868;2023-05-08T07:23:47;100954.88;;;19.73;89.35
33075;BME280;19433;51.292;6.868;2023-05-08T07:26:15;100948.19;;;20.08;90.46
33075;BME280;19433;51.292;6.868;2023-05-08T07:28:41;100973.47;;;22.36;78.01
33075;BME280;19433;51.292;6.868;2023-05-08T07:31:06;100972.22;;;24.39;71.85
33075;BME280;19433;51.292;6.868;2023-05-08T07:33:31;100986.25;;;26.43;58.83
33075;BME280;19433;51.292;6.868;2023-05-08T07:35:58;100987.91;;;26.44;56.40
33075;BME280;19433;51.292;6.868;2023-05-08T07:38:23;101003.19;;;25.70;56.77
33075;BME280;19433;51.292;6.868;2023-05-08T07:40:48;101006.75;;;26.58;57.99
33075;BME280;19433;51.292;6.868;2023-05-08T07:43:15;101004.41;;;26.71;50.50
33075;BME280;19433;51.292;6.868;2023-05-08T07:45:41;101011.16;;;28.26;51.91
33075;BME280;19433;51.292;6.868;2023-05-08T07:48:06;101009.69;;;28.80;44.40
33075;BME280;19433;51.292;6.868;2023-05-08T07:50:32;101017.13;;;29.99;47.02
33075;BME280;19433;51.292;6.868;2023-05-08T07:52:58;101027.22;;;30.19;40.65
33075;BME280;19433;51.292;6.868;2023-05-08T07:55:23;101026.75;;;31.01;42.47
33075;BME280;19433;51.292;6.868;2023-05-08T07:57:49;101024.44;;;31.03;40.40
33075;BME280;19433;51.292;6.868;2023-05-08T08:00:14;101027.06;;;31.62;39.93
33075;BME280;19433;51.292;6.868;2023-05-08T08:02:43;101024.09;;;32.10;36.67
33075;BME280;19433;51.292;6.868;2023-05-08T08:05:12;101007.28;;;31.91;37.95
33075;BME280;19433;51.292;6.868;2023-05-08T08:07:37;101019.41;;;32.14;35.72
33075;BME280;19433;51.292;6.868;2023-05-08T08:10:03;101022.94;;;32.28;36.68
33075;BME280;19433;51.292;6.868;2023-05-08T08:12:29;101029.47;;;31.86;35.45
33075;BME280;19433;51.292;6.868;2023-05-08T08:14:55;101019.91;;;31.99;37.51
33075;BME280;19433;51.292;6.868;2023-05-08T08:17:20;101017.56;;;30.73;39.08
33075;BME280;19433;51.292;6.868;2023-05-08T08:19:46;101013.03;;;29.92;41.57
33075;BME280;19433;51.292;6.868;2023-05-08T08:22:13;100993.97;;;27.61;45.79
33075;BME280;19433;51.292;6.868;2023-05-08T08:24:38;100995.28;;;26.45;47.67
33075;BME280;19433;51.292;6.868;2023-05-08T08:27:03;101000.22;;;25.95;51.07
33075;BME280;19433;51.292;6.868;2023-05-08T08:29:29;100994.50;;;26.00;49.34
33075;BME280;19433;51.292;6.868;2023-05-08T08:31:55;101003.84;;;26.40;53.81
33075;BME280;19433;51.292;6.868;2023-05-08T08:34:20;101003.78;;;26.45;51.28
33075;BME280;19433;51.292;6.868;2023-05-08T08:36:46;101007.09;;;27.10;46.86
33075;BME280;19433;51.292;6.868;2023-05-08T08:39:11;101001.66;;;27.37;46.89
33075;BME280;19433;51.292;6.868;2023-05-08T08:41:38;100996.75;;;26.42;49.55
33075;BME280;19433;51.292;6.868;2023-05-08T08:44:06;100996.16;;;26.06;50.62
33075;BME280;19433;51.292;6.868;2023-05-08T08:46:31;100996.88;;;25.83;49.65
33075;BME280;19433;51.292;6.868;2023-05-08T08:48:58;100996.13;;;25.03;50.92
33075;BME280;19433;51.292;6.868;2023-05-08T08:51:27;100997.03;;;23.92;56.02
33075;BME280;19433;51.292;6.868;2023-05-08T08:54:16;100983.41;;;22.86;58.20
33075;BME280;19433;51.292;6.868;2023-05-08T08:56:44;100987.09;;;22.12;63.77
33075;BME280;19433;51.292;6.868;2023-05-08T08:59:12;100986.75;;;21.55;67.00
33075;BME280;19433;51.292;6.868;2023-05-08T09:01:43;100995.88;;;21.18;71.30
33075;BME280;19433;51.292;6.868;2023-05-08T09:04:11;100992.84;;;21.03;71.07
33075;BME280;19433;51.292;6.868;2023-05-08T09:06:37;100986.09;;;21.21;70.53
33075;BME280;19433;51.292;6.868;2023-05-08T09:09:03;100990.31;;;21.01;69.41
33075;BME280;19433;51.292;6.868;2023-05-08T09:11:29;100991.28;;;20.52;71.73
33075;BME280;19433;51.292;6.868;2023-05-08T09:13:55;100980.53;;;20.32;73.21
33075;BME280;19433;51.292;6.868;2023-05-08T09:16:21;100990.75;;;20.05;76.64
33075;BME280;19433;51.292;6.868;2023-05-08T09:18:46;100983.34;;;20.32;76.57
33075;BME280;19433;51.292;6.868;2023-05-08T09:21:11;100999.34;;;20.48;75.18
33075;BME280;19433;51.292;6.868;2023-05-08T09:24:03;100996.84;;;20.47;73.81
33075;BME280;19433;51.292;6.868;2023-05-08T09:26:35;100984.84;;;20.01;76.54
33075;BME280;19433;51.292;6.868;2023-05-08T09:29:20;100988.53;;;19.90;77.11
33075;BME280;19433;51.292;6.868;2023-05-08T09:31:51;100989.00;;;19.98;77.88
33075;BME280;19433;51.292;6.868;2023-05-08T09:34:26;100983.22;;;19.60;76.85
33075;BME280;19433;51.292;6.868;2023-05-08T09:37:12;100987.50;;;19.79;77.57
33075;BME280;19433;51.292;6.868;2023-05-08T09:39:38;100992.91;;;19.52;79.69
33075;BME280;19433;51.292;6.868;2023-05-08T09:42:07;100986.44;;;19.40;79.96
33075;BME280;19433;51.292;6.868;2023-05-08T09:44:59;100989.03;;;19.70;78.52
33075;BME280;19433;51.292;6.868;2023-05-08T09:47:24;100981.03;;;19.62;77.39
33075;BME280;19433;51.292;6.868;2023-05-08T09:49:59;100981.56;;;19.92;77.23
33075;BME280;19433;51.292;6.868;2023-05-08T09:52:26;100991.72;;;20.10;75.47
33075;BME280;19433;51.292;6.868;2023-05-08T09:55:00;100984.81;;;20.18;77.29
33075;BME280;19433;51.292;6.868;2023-05-08T09:57:27;100993.91;;;20.08;74.91
33075;BME280;19433;51.292;6.868;2023-05-08T10:00:12;100987.94;;;20.05;80.20
33075;BME280;19433;51.292;6.868;2023-05-08T10:02:40;100984.88;;;19.89;77.82
33075;BME280;19433;51.292;6.868;2023-05-08T10:05:29;100982.69;;;19.91;77.54
33075;BME280;19433;51.292;6.868;2023-05-08T10:07:59;100981.34;;;20.44;78.81
33075;BME280;19433;51.292;6.868;2023-05-08T10:10:40;100981.47;;;20.71;76.25
33075;BME280;19433;51.292;6.868;2023-05-08T10:13:06;100983.53;;;20.59;73.85
33075;BME280;19433;51.292;6.868;2023-05-08T10:15:32;100969.25;;;20.27;75.29
33075;BME280;19433;51.292;6.868;2023-05-08T10:18:03;100981.50;;;20.38;76.20
33075;BME280;19433;51.292;6.868;2023-05-08T10:20:30;100971.97;;;20.55;77.90
33075;BME280;19433;51.292;6.868;2023-05-08T10:22:56;100981.72;;;20.69;72.56
33075;BME280;19433;51.292;6.868;2023-05-08T10:25:23;100977.84;;;20.54;73.61
33075;BME280;19433;51.292;6.868;2023-05-08T10:27:58;100966.13;;;20.40;74.38
33075;BME280;19433;51.292;6.868;2023-05-08T10:30:29;100974.88;;;20.27;74.81
33075;BME280;19433;51.292;6.868;2023-05-08T10:32:57;100958.94;;;20.49;74.01
33075;BME280;19433;51.292;6.868;2023-05-08T10:35:23;100968.00;;;20.73;76.16
33075;BME280;19433;51.292;6.868;2023-05-08T10:37:50;100968.78;;;20.68;74.46
33075;BME280;19433;51.292;6.868;2023-05-08T10:40:16;100958.47;;;20.74;76.11
33075;BME280;19433;51.292;6.868;2023-05-08T10:42:42;100954.56;;;20.97;76.24
33075;BME280;19433;51.292;6.868;2023-05-08T10:45:12;100962.28;;;22.09;72.25
33075;BME280;19433;51.292;6.868;2023-05-08T10:53:12;100960.41;;;23.14;62.99
33075;BME280;19433;51.292;6.868;2023-05-08T10:55:44;100962.31;;;23.76;60.94
33075;BME280;19433;51.292;6.868;2023-05-08T10:58:14;100969.28;;;25.99;53.89
33075;BME280;19433;51.292;6.868;2023-05-08T11:03:18;100993.69;;;29.53;42.55
33075;BME280;19433;51.292;6.868;2023-05-08T11:05:45;100984.72;;;30.54;37.51
33075;BME280;19433;51.292;6.868;2023-05-08T11:08:30;100989.97;;;30.91;37.64
33075;BME280;19433;51.292;6.868;2023-05-08T11:13:41;100979.78;;;31.07;36.54
33075;BME280;19433;51.292;6.868;2023-05-08T11:16:09;100969.09;;;28.42;41.11
33075;BME280;19433;51.292;6.868;2023-05-08T11:18:37;100977.25;;;29.09;39.48
33075;BME280;19433;51.292;6.868;2023-05-08T11:21:04;100969.47;;;29.00;40.74
33075;BME280;19433;51.292;6.868;2023-05-08T11:23:33;100967.75;;;29.54;39.41
33075;BME280;19433;51.292;6.868;2023-05-08T11:26:01;100966.47;;;29.60;41.02
33075;BME280;19433;51.292;6.868;2023-05-08T11:28:32;100970.03;;;31.00;37.41
33075;BME280;19433;51.292;6.868;2023-05-08T11:31:02;100967.53;;;31.64;35.48
33075;BME280;19433;51.292;6.868;2023-05-08T11:33:29;100972.13;;;31.73;36.35
33075;BME280;19433;51.292;6.868;2023-05-08T11:38:29;100973.41;;;34.60;29.88
33075;BME280;19433;51.292;6.868;2023-05-08T11:40:55;100979.25;;;35.08;30.85
33075;BME280;19433;51.292;6.868;2023-05-08T11:46:12;100964.66;;;34.02;31.41
33075;BME280;19433;51.292;6.868;2023-05-08T11:48:40;100972.75;;;33.79;30.26
33075;BME280;19433;51.292;6.868;2023-05-08T11:51:05;100971.38;;;35.78;30.57
33075;BME280;19433;51.292;6.868;2023-05-08T11:53:31;100966.88;;;35.93;28.80
33075;BME280;19433;51.292;6.868;2023-05-08T11:55:57;100973.88;;;34.08;29.69
33075;BME280;19433;51.292;6.868;2023-05-08T11:58:23;100972.28;;;33.10;30.56
33075;BME280;19433;51.292;6.868;2023-05-08T12:00:49;100959.91;;;29.73;35.25
33075;BME280;19433;51.292;6.868;2023-05-08T12:03:19;100949.94;;;28.80;38.08
33075;BME280;19433;51.292;6.868;2023-05-08T12:05:46;100941.75;;;28.46;41.04
33075;BME280;19433;51.292;6.868;2023-05-08T12:08:13;100948.69;;;29.27;40.19
33075;BME280;19433;51.292;6.868;2023-05-08T12:10:47;100958.91;;;29.92;36.86
33075;BME280;19433;51.292;6.868;2023-05-08T12:13:23;100954.03;;;29.56;37.49
33075;BME280;19433;51.292;6.868;2023-05-08T12:15:51;100937.97;;;29.74;38.27
33075;BME280;19433;51.292;6.868;2023-05-08T12:18:19;100939.81;;;28.88;37.89
33075;BME280;19433;51.292;6.868;2023-05-08T12:20:45;100944.66;;;28.27;40.45
33075;BME280;19433;51.292;6.868;2023-05-08T12:23:11;100939.53;;;26.64;44.46
33075;BME280;19433;51.292;6.868;2023-05-08T12:25:37;100942.22;;;26.21;45.96
33075;BME280;19433;51.292;6.868;2023-05-08T12:28:05;100922.59;;;25.57;46.36
33075;BME280;19433;51.292;6.868;2023-05-08T12:30:32;100925.44;;;25.52;48.01
33075;BME280;19433;51.292;6.868;2023-05-08T12:32:58;100929.34;;;25.17;48.42
33075;BME280;19433;51.292;6.868;2023-05-08T12:35:23;100928.31;;;24.77;49.80
33075;BME280;19433;51.292;6.868;2023-05-08T12:37:49;100926.13;;;24.64;51.57
33075;BME280;19433;51.292;6.868;2023-05-08T12:40:47;100934.66;;;23.88;55.21
33075;BME280;19433;51.292;6.868;2023-05-08T12:43:17;100920.81;;;24.17;55.31
33075;BME280;19433;51.292;6.868;2023-05-08T12:45:43;100924.78;;;24.11;56.73
33075;BME280;19433;51.292;6.868;2023-05-08T12:48:13;100920.81;;;24.32;54.99
33075;BME280;19433;51.292;6.868;2023-05-08T12:50:45;100919.41;;;23.99;55.73
33075;BME280;19433;51.292;6.868;2023-05-08T12:53:14;100922.25;;;23.94;55.42
33075;BME280;19433;51.292;6.868;2023-05-08T12:55:52;100923.06;;;24.00;53.64
33075;BME280;19433;51.292;6.868;2023-05-08T12:58:18;100917.16;;;23.86;54.79
33075;BME280;19433;51.292;6.868;2023-05-08T13:00:46;100911.78;;;23.84;56.08
33075;BME280;19433;51.292;6.868;2023-05-08T13:03:21;100903.59;;;24.03;57.68
33075;BME280;19433;51.292;6.868;2023-05-08T13:05:48;100900.47;;;24.30;54.29
33075;BME280;19433;51.292;6.868;2023-05-08T13:08:13;100910.66;;;24.21;54.67
33075;BME280;19433;51.292;6.868;2023-05-08T13:10:53;100904.44;;;24.09;53.58
33075;BME280;19433;51.292;6.868;2023-05-08T13:13:22;100892.56;;;23.46;56.36
33075;BME280;19433;51.292;6.868;2023-05-08T13:15:49;100897.13;;;23.67;57.74
33075;BME280;19433;51.292;6.868;2023-05-08T13:18:15;100896.25;;;23.87;54.46
33075;BME280;19433;51.292;6.868;2023-05-08T13:20:43;100886.63;;;23.47;56.04
33075;BME280;19433;51.292;6.868;2023-05-08T13:23:09;100892.84;;;24.31;56.02
33075;BME280;19433;51.292;6.868;2023-05-08T13:25:37;100882.06;;;24.58;52.02
33075;BME280;19433;51.292;6.868;2023-05-08T13:28:04;100884.91;;;24.53;52.20
33075;BME280;19433;51.292;6.868;2023-05-08T13:30:30;100889.31;;;24.79;53.37
33075;BME280;19433;51.292;6.868;2023-05-08T13:32:56;100878.75;;;25.10;51.15